Terminal Aerodrome Forecast
Issued by NWS

Home | Current Version | Previous Version | Text Only | Print | Product List | Glossary Off
Versions: 1 2 3 4 5 6 7 8 9 10 11 12 13 14 15 16 17

000
FTUS43 KBIS 170500
TAFMOT
TAF
KMOT 170520Z 1706/1806 07009KT P6SM BKN060 OVC090
     FM171000 09007KT P6SM SCT025 BKN050 OVC080
     FM171500 12012KT P6SM BKN050 OVC090
     FM171900 14015G22KT P6SM BKN060 BKN090
     FM180300 11012KT P6SM BKN035 OVC080=

USA.gov is the U.S. government's official web portal to all federal, state and local government web resources and services.